Anderson, Missouri
Current Conditions -  °F | °C
As of 3:15 AM on Sunday 21 Dec 2014 (Local Time) from KGMJ Reporting Station
Overcast Overcast  
Wind Chill: 45°   Ceiling: 2200
Heat Index: 45°   Visibility: 10mi
Dew Point: 41°   Wind: 3mph
Humidity: 87%   Direction: 150°SSE
Pressure: 30.14"   Gusts: NA
Location:  36.65°N, 94.44°W
Report Text: KGMJ 210915Z AUTO 15003KT 10SM OVC022 07/05 A3014 RMK AO2
Loading
Personal Weather Stations






























Interactive Weather Map New forecast layout! Learn more

10-Day Weather Forecast

Advertisements
Track Severe Weather on mobile